CMB840 Details

Departure: Bahrain International Airport (OBBI)
Arrival: Ambouli International Airport (HDAM)
Route: NARMI Q212 KIA G667 PARIM PARIM2V
Notes: USTRANSCOM CONTRACT FLIGHT


Current Weather Information
OBBI 212230Z 19004KT CAVOK 31/20 Q1010 NOSIG
HDAM 211300Z 15015KT 1000 HZ FEW023 FEW030CB 32/25 Q1010